Kaprifol — 5BXX2 — position and weather

sailwx.info

Track history (hours):
 
Tides and Currents Weather Stations Pressure Air Temp Water Temp Dewpoint Dewpoint Depression Visibility Wind Speed Wind Dir Waves Ship Positions

Kaprifol

Last reported at 2018-Apr-25 08:16 UTC. Time now 2018-Apr-26 13:25 UTC.
Position N 57°28' W 001°34'.

Length 89 m; draft 5.5 m.

Type: Tanker. MMSI: 210445000.

Date/timePositionNaut miles runAvg speedWind from/ knotsBaromVisibWave heightAir tempDewpointWater temp
2018-Apr-25 08:16N 57°28' W 001°34'311.6
2018-Apr-25 07:59N 57°28' W 001°40'4 8.4
2018-Apr-25 07:28N 57°30' W 001°47'0 0.1
2018-Apr-25 06:58N 57°30' W 001°47'0 0.0
2018-Apr-25 06:25N 57°30' W 001°47'0 0.0
2018-Apr-25 05:58N 57°30' W 001°47'0 0.0
2018-Apr-25 05:25N 57°30' W 001°47'0 0.0
2018-Apr-25 04:58N 57°30' W 001°47'0 0.0
2018-Apr-25 04:28N 57°30' W 001°47'0 0.0
2018-Apr-25 03:58N 57°30' W 001°47'0 0.0
2018-Apr-25 03:13N 57°30' W 001°47'0 0.0
2018-Apr-25 02:58N 57°30' W 001°47'0 0.0
2018-Apr-25 02:16N 57°30' W 001°47'0 0.0
2018-Apr-25 01:55N 57°30' W 001°47'0 0.0
2018-Apr-25 01:13N 57°30' W 001°47'0 0.0
2018-Apr-25 00:55N 57°30' W 001°47'0 0.0
2018-Apr-25 00:28N 57°30' W 001°47'0 0.0
2018-Apr-24 23:55N 57°30' W 001°47'0 0.0
2018-Apr-24 23:19N 57°30' W 001°47'0 0.0
2018-Apr-24 22:55N 57°30' W 001°47'0 0.0
2018-Apr-24 22:25N 57°30' W 001°47'0 0.0
2018-Apr-24 21:55N 57°30' W 001°47'0 0.0
2018-Apr-24 21:25N 57°30' W 001°47'0 0.0
2018-Apr-24 20:58N 57°30' W 001°47'0 0.0
2018-Apr-24 20:19N 57°30' W 001°47'0 0.0
2018-Apr-24 19:45N 57°30' W 001°47'0 1.0
2018-Apr-24 19:30N 57°30' W 001°47'2 4.4
2018-Apr-24 19:00N 57°28' W 001°44'0 0.1
2018-Apr-24 18:30N 57°28' W 001°44'0 0.6
2018-Apr-24 18:00N 57°28' W 001°44'1 1.4
2018-Apr-24 17:30N 57°27' W 001°44'1 1.3
2018-Apr-24 17:00N 57°27' W 001°45'1 1.2
2018-Apr-24 16:29N 57°26' W 001°45'5 3.8
2018-Apr-24 15:07N 57°22' W 001°49'1 5.5
2018-Apr-24 14:58N 57°21' W 001°50'3 5.7
2018-Apr-24 14:30N 57°18' W 001°52'3 5.7
2018-Apr-24 14:00N 57°16' W 001°54'3 5.7
2018-Apr-24 13:30N 57°13' W 001°56'3 6.4
2018-Apr-24 13:00N 57°11' W 001°60'4 7.1
2018-Apr-24 12:30N 57°09' W 002°05'0 0.0
2018-Apr-24 11:58N 57°08' W 002°05'0 0.0
2018-Apr-24 11:28N 57°08' W 002°05'0 0.0
2018-Apr-24 10:58N 57°09' W 002°05'0 0.0
2018-Apr-24 10:28N 57°09' W 002°05'0 0.0
2018-Apr-24 09:58N 57°09' W 002°05'0 0.0
2018-Apr-24 09:28N 57°09' W 002°05'0 0.0
2018-Apr-24 08:58N 57°08' W 002°05'0 0.0
2018-Apr-24 08:28N 57°09' W 002°05'0 0.0
2018-Apr-24 07:58N 57°08' W 002°05'0 0.0
2018-Apr-24 07:28N 57°09' W 002°05'0 0.0
2018-Apr-24 06:58N 57°09' W 002°05'0 0.0
2018-Apr-24 06:28N 57°09' W 002°05'0 0.0
2018-Apr-24 05:58N 57°09' W 002°05'0 0.0
2018-Apr-24 05:28N 57°09' W 002°05'0 0.0
2018-Apr-24 05:01N 57°09' W 002°05'0 0.5
2018-Apr-24 04:30N 57°08' W 002°04'2 3.3
2018-Apr-24 04:01N 57°09' W 002°02'3 6.1
2018-Apr-24 03:30N 57°08' W 001°56'4 8.0
2018-Apr-24 03:00N 57°05' W 001°52'25410.1
2018-Apr-23 01:55N 53°21' E 001°37'4 9.4
2018-Apr-23 01:30N 53°17' E 001°39'5 9.2
2018-Apr-23 01:00N 53°13' E 001°42'5 9.2
2018-Apr-23 00:30N 53°08' E 001°45'4 9.1
2018-Apr-23 00:01N 53°04' E 001°48'5 8.9
2018-Apr-22 23:30N 53°01' E 001°52'4 9.1
2018-Apr-22 23:00N 52°57' E 001°56'5 9.7
2018-Apr-22 22:30N 52°52' E 002°00'610.4
2018-Apr-22 21:57N 52°48' E 002°06'511.2
2018-Apr-22 21:29N 52°43' E 002°11'5911.5
2018-Apr-22 16:22N 51°55' E 003°05'710.5
2018-Apr-22 15:44N 51°49' E 003°10'310.2
2018-Apr-22 15:29N 51°47' E 003°12'510.1
2018-Apr-22 15:00N 51°43' E 003°16'5 9.7
2018-Apr-22 14:30N 51°39' E 003°21'5 9.7
2018-Apr-22 14:00N 51°35' E 003°24'5 8.8
2018-Apr-22 13:29N 51°30' E 003°27'4 8.2
2018-Apr-22 13:00N 51°27' E 003°31'4 8.0
2018-Apr-22 12:30N 51°26' E 003°37'510.3
2018-Apr-22 12:00N 51°23' E 003°44'611.7
2018-Apr-22 11:30N 51°21' E 003°53'612.2
2018-Apr-22 10:59N 51°26' E 003°59'511.4
2018-Apr-22 10:30N 51°22' E 004°05'5 9.7
2018-Apr-22 10:00N 51°23' E 004°13'511.1
2018-Apr-22 09:30N 51°18' E 004°17'2 4.0
2018-Apr-22 09:00N 51°17' E 004°20'0 0.0
2018-Apr-22 08:31N 51°17' E 004°20'0 0.3
2018-Apr-22 08:00N 51°17' E 004°20'2 4.6
2018-Apr-22 07:31N 51°16' E 004°23'1 1.2
2018-Apr-22 07:00N 51°16' E 004°24'0 0.0
2018-Apr-22 06:30N 51°16' E 004°24'0 0.0
2018-Apr-22 06:00N 51°16' E 004°24'0 0.0
2018-Apr-22 05:30N 51°16' E 004°24'0 0.0
2018-Apr-22 05:00N 51°16' E 004°24'0 0.0
2018-Apr-22 04:30N 51°16' E 004°24'0 0.0
2018-Apr-22 04:00N 51°16' E 004°24'0 0.0
2018-Apr-22 03:30N 51°16' E 004°24'0 0.0
2018-Apr-22 02:59N 51°16' E 004°24'0 0.0
2018-Apr-22 02:29N 51°16' E 004°24'0 0.0
2018-Apr-22 01:59N 51°16' E 004°24'0 0.0
2018-Apr-22 01:29N 51°16' E 004°24'0 0.0
2018-Apr-22 00:59N 51°16' E 004°24'0 0.0
2018-Apr-22 00:29N 51°16' E 004°24'0 0.0
2018-Apr-21 23:59N 51°16' E 004°24'0 0.0
2018-Apr-21 23:29N 51°16' E 004°24'0 0.0
2018-Apr-21 22:59N 51°16' E 004°24'0 0.0
2018-Apr-21 22:29N 51°16' E 004°24'0 0.0
2018-Apr-21 21:59N 51°16' E 004°24'0 0.0
2018-Apr-21 21:29N 51°16' E 004°24'0 0.0
2018-Apr-21 20:59N 51°16' E 004°24'0 0.0
2018-Apr-21 20:29N 51°16' E 004°24'0 0.0
2018-Apr-21 19:59N 51°16' E 004°24'0 0.0
2018-Apr-21 19:29N 51°16' E 004°24'0 0.0
2018-Apr-21 18:59N 51°16' E 004°24'0 0.0
2018-Apr-21 18:29N 51°16' E 004°24'0 0.0
2018-Apr-21 17:59N 51°16' E 004°24'0 0.0
2018-Apr-21 17:29N 51°16' E 004°24'0 0.0
2018-Apr-21 16:59N 51°16' E 004°24'0 0.0
2018-Apr-21 16:29N 51°16' E 004°24'0 0.7
2018-Apr-21 16:00N 51°16' E 004°24'2 4.8
2018-Apr-21 15:30N 51°17' E 004°21'3 5.4
2018-Apr-21 15:00N 51°19' E 004°19'2 2.0
2018-Apr-21 14:07N 51°21' E 004°17'0 0.0
2018-Apr-21 14:00N 51°21' E 004°17'0 0.4
2018-Apr-21 13:27N 51°21' E 004°17'3 6.8
2018-Apr-21 12:59N 51°23' E 004°13'3 6.1
2018-Apr-21 12:30N 51°22' E 004°08'4 8.3
2018-Apr-21 11:59N 51°24' E 004°02'3 5.7
2018-Apr-21 11:30N 51°24' E 003°58'4 8.8
2018-Apr-21 11:00N 51°21' E 003°53'4 8.6
2018-Apr-21 10:30N 51°21' E 003°46'4 8.3
2018-Apr-21 10:00N 51°25' E 003°42'4 7.8
2018-Apr-21 09:30N 51°26' E 003°36'4 7.9
2018-Apr-21 08:59N 51°28' E 003°31'510.2
2018-Apr-21 08:30N 51°32' E 003°26'510.0
2018-Apr-21 08:00N 51°36' E 003°22'510.7
2018-Apr-21 07:30N 51°41' E 003°18'510.5
2018-Apr-21 07:00N 51°45' E 003°13'4 8.4
2018-Apr-21 06:29N 51°49' E 003°08'4 8.0
2018-Apr-21 06:00N 51°52' E 003°06'4 8.0
2018-Apr-21 05:29N 51°56' E 003°04'4 8.1
2018-Apr-21 05:00N 51°60' E 003°02'4 8.1
2018-Apr-21 04:30N 52°04' E 002°60'4 8.1
2018-Apr-21 04:00N 52°08' E 002°59'4 8.3
2018-Apr-21 03:30N 52°11' E 003°02'5 9.3
2018-Apr-21 03:00N 52°16' E 003°03'510.5
2018-Apr-21 02:30N 52°21' E 003°04'610.2
2018-Apr-21 01:57N 52°27' E 003°05'510.5
2018-Apr-21 01:30N 52°31' E 003°06'610.8
2018-Apr-21 00:59N 52°37' E 003°08'611.3
2018-Apr-21 00:28N 52°43' E 003°09'612.3
2018-Apr-21 00:00N 52°48' E 003°11'713.1
2018-Apr-20 23:28N 52°55' E 003°15'812.9
2018-Apr-20 22:52N 53°02' E 003°19'812.4
2018-Apr-20 22:15N 53°10' E 003°23'1211.6
2018-Apr-20 21:13N 53°21' E 003°30'3710.7
2018-Apr-20 17:46N 53°53' E 004°02'412.0
2018-Apr-20 17:24N 53°55' E 004°07'26111.2
2018-Apr-19 18:07N 58°14' E 005°07'110.8
2018-Apr-19 18:00N 58°15' E 005°07'611.0
2018-Apr-19 17:29N 58°21' E 005°07'610.5
2018-Apr-19 16:52N 58°27' E 005°08'410.5
2018-Apr-19 16:29N 58°31' E 005°08'510.5
2018-Apr-19 16:00N 58°36' E 005°09'5 9.8
2018-Apr-19 15:30N 58°41' E 005°12'5 9.0
2018-Apr-19 14:59N 58°45' E 005°16'5 9.9
2018-Apr-19 14:30N 58°48' E 005°23'510.7
2018-Apr-19 14:00N 58°52' E 005°31'5 9.9
2018-Apr-19 13:30N 58°57' E 005°33'611.1
2018-Apr-19 13:00N 59°02' E 005°33'5 9.8
2018-Apr-19 12:30N 59°02' E 005°43'510.2
2018-Apr-19 12:00N 59°04' E 005°52'510.5
2018-Apr-19 11:29N 59°08' E 005°59'1 1.6
2018-Apr-19 10:58N 59°07' E 006°00'0 0.0
2018-Apr-19 10:30N 59°07' E 006°00'0 0.0
2018-Apr-19 10:00N 59°07' E 006°00'0 0.0
2018-Apr-19 09:30N 59°07' E 006°00'0 0.0
2018-Apr-19 09:00N 59°07' E 006°00'0 0.0
2018-Apr-19 08:30N 59°07' E 006°00'0 0.0
2018-Apr-19 08:00N 59°07' E 006°00'0 0.0
2018-Apr-19 07:30N 59°07' E 006°00'0 0.0
2018-Apr-19 07:00N 59°07' E 006°00'0 0.0
2018-Apr-19 06:30N 59°07' E 006°00'0 0.0
2018-Apr-19 06:00N 59°07' E 006°00'0 0.0
2018-Apr-19 05:30N 59°07' E 006°00'0 0.0
2018-Apr-19 05:00N 59°07' E 006°00'0 0.0
2018-Apr-19 04:30N 59°07' E 006°00'0 0.0
2018-Apr-19 04:00N 59°07' E 006°00'0 0.0
2018-Apr-19 03:30N 59°07' E 006°00'0 0.0
2018-Apr-19 03:00N 59°07' E 006°00'0 0.0
2018-Apr-19 02:30N 59°07' E 006°00'0 0.0
2018-Apr-19 02:00N 59°07' E 006°00'0 0.0
2018-Apr-19 01:30N 59°07' E 006°00'0 0.0
2018-Apr-19 01:00N 59°07' E 006°00'0 0.0
2018-Apr-19 00:30N 59°07' E 006°00'0 0.0
2018-Apr-19 00:00N 59°07' E 006°00'0 0.0
2018-Apr-18 23:30N 59°07' E 006°00'0 0.0
2018-Apr-18 23:00N 59°07' E 006°00'0 0.0
2018-Apr-18 22:30N 59°07' E 006°00'0 0.0
2018-Apr-18 22:00N 59°07' E 006°00'0 0.0
2018-Apr-18 21:30N 59°07' E 006°00'0 0.0
2018-Apr-18 21:00N 59°07' E 006°00'0 0.0
2018-Apr-18 20:30N 59°07' E 006°00'0 0.0
2018-Apr-18 19:59N 59°07' E 006°00'0 0.0
2018-Apr-18 19:29N 59°07' E 006°00'0 0.0
2018-Apr-18 18:59N 59°07' E 006°00'0 0.0
2018-Apr-18 18:29N 59°07' E 006°00'0 0.0
2018-Apr-18 17:59N 59°07' E 006°00'0 0.0
2018-Apr-18 17:29N 59°07' E 006°00'0 0.0
2018-Apr-18 16:59N 59°07' E 006°00'0 0.0
2018-Apr-18 16:29N 59°07' E 006°00'0 0.0
2018-Apr-18 15:59N 59°07' E 006°00'0 0.0
2018-Apr-18 15:29N 59°07' E 006°00'0 0.0
2018-Apr-18 14:59N 59°07' E 006°00'0 0.0
2018-Apr-18 14:29N 59°07' E 006°00'0 0.0
2018-Apr-18 13:59N 59°07' E 006°00'0 0.0
2018-Apr-18 13:29N 59°07' E 006°00'0 0.0
2018-Apr-18 12:59N 59°07' E 006°00'0 0.0
2018-Apr-18 12:29N 59°07' E 006°00'0 0.0
2018-Apr-18 11:59N 59°07' E 006°00'0 0.0
2018-Apr-18 11:29N 59°07' E 006°00'0 0.0
2018-Apr-18 10:59N 59°07' E 006°00'0 0.0
2018-Apr-18 10:29N 59°07' E 006°00'0 0.0
2018-Apr-18 09:59N 59°07' E 006°00'0 0.0
2018-Apr-18 09:26N 59°07' E 006°00'0 0.0
2018-Apr-18 08:59N 59°07' E 006°00'0 0.0
2018-Apr-18 08:29N 59°07' E 006°00'0 0.0
2018-Apr-18 07:59N 59°07' E 006°00'0 0.0
2018-Apr-18 07:29N 59°07' E 006°00'0 0.0
2018-Apr-18 06:59N 59°07' E 006°00'0 0.0
2018-Apr-18 06:29N 59°07' E 006°00'0 0.0
2018-Apr-18 05:59N 59°07' E 006°00'0 0.0
2018-Apr-18 05:29N 59°07' E 006°00'0 0.0
2018-Apr-18 04:59N 59°07' E 006°00'0 0.0
2018-Apr-18 04:29N 59°07' E 006°00'0 0.0
2018-Apr-18 03:59N 59°07' E 006°00'0 0.0
2018-Apr-18 03:29N 59°07' E 006°00'0 0.0
2018-Apr-18 02:59N 59°07' E 006°00'0 0.0
2018-Apr-18 02:29N 59°07' E 006°00'0 0.0
2018-Apr-18 01:59N 59°07' E 006°00'0 0.0
2018-Apr-18 01:29N 59°07' E 006°00'0 0.0
2018-Apr-18 00:59N 59°07' E 006°00'0 0.0
2018-Apr-18 00:29N 59°07' E 006°00'0 0.0
2018-Apr-17 23:59N 59°07' E 006°00'0 0.0
2018-Apr-17 23:29N 59°07' E 006°00'0 0.0
2018-Apr-17 22:59N 59°07' E 006°00'0 0.0
2018-Apr-17 22:29N 59°07' E 006°00'0 0.0
2018-Apr-17 21:59N 59°07' E 006°00'0 0.0
2018-Apr-17 21:29N 59°07' E 006°00'0 0.0
2018-Apr-17 20:59N 59°07' E 006°00'0 0.0
2018-Apr-17 20:30N 59°07' E 006°00'0 0.2
2018-Apr-17 20:00N 59°07' E 006°00'3 7.0
2018-Apr-17 19:30N 59°06' E 005°54'5 9.1
2018-Apr-17 19:00N 59°08' E 005°46'5 9.9
2018-Apr-17 18:30N 59°09' E 005°36'510.4
2018-Apr-17 18:00N 59°07' E 005°27'4 8.8
2018-Apr-17 17:30N 59°04' E 005°21'510.2
2018-Apr-17 17:00N 58°59' E 005°18'510.2
2018-Apr-17 16:30N 58°54' E 005°14'510.1
2018-Apr-17 16:00N 58°50' E 005°09'5 9.6
2018-Apr-17 15:30N 58°45' E 005°05'5 9.1
2018-Apr-17 15:00N 58°41' E 005°05'5 9.1
2018-Apr-17 14:30N 58°36' E 005°04'5 9.8
2018-Apr-17 14:00N 58°31' E 005°03'428 9.3
2018-Apr-15 16:10N 51°31' E 002°43'210.7
2018-Apr-15 15:59N 51°29' E 002°43'713.1
2018-Apr-15 15:29N 51°22' E 002°45'4 8.6
2018-Apr-15 15:00N 51°22' E 002°52'4 7.9
2018-Apr-15 14:30N 51°22' E 002°58'510.9
2018-Apr-15 14:00N 51°22' E 003°07'4 7.8
2018-Apr-15 13:30N 51°20' E 003°13'0 0.6
2018-Apr-15 13:00N 51°20' E 003°13'1 2.7
2018-Apr-15 12:30N 51°19' E 003°13'0 0.1
2018-Apr-15 11:59N 51°19' E 003°12'0 0.0
2018-Apr-15 11:29N 51°19' E 003°12'0 0.0
2018-Apr-15 10:59N 51°19' E 003°12'0 0.0
2018-Apr-15 10:29N 51°19' E 003°12'0 0.0
2018-Apr-15 09:59N 51°19' E 003°12'0 0.0
2018-Apr-15 09:29N 51°19' E 003°12'0 0.0
2018-Apr-15 08:59N 51°19' E 003°12'0 0.0
2018-Apr-15 08:29N 51°19' E 003°12'  
Track history (hours):
 
Tides and Currents Weather Stations Pressure Air Temp Water Temp Dewpoint Dewpoint Depression Visibility Wind Speed Wind Dir Waves Ship Positions

Kaprifol

Last reported at 2018-Apr-25 08:16 UTC. Time now 2018-Apr-26 13:25 UTC.
Position N 57°28' W 001°34'.

Length 89 m; draft 5.5 m.

Type: Tanker. MMSI: 210445000.

Date/timePositionNaut miles runAvg speedWind from/ knotsBaromVisibWave heightAir tempDewpointWater temp
2018-Apr-25 08:16N 57°28' W 001°34'311.6
2018-Apr-25 07:59N 57°28' W 001°40'4 8.4
2018-Apr-25 07:28N 57°30' W 001°47'0 0.1
2018-Apr-25 06:58N 57°30' W 001°47'0 0.0
2018-Apr-25 06:25N 57°30' W 001°47'0 0.0
2018-Apr-25 05:58N 57°30' W 001°47'0 0.0
2018-Apr-25 05:25N 57°30' W 001°47'0 0.0
2018-Apr-25 04:58N 57°30' W 001°47'0 0.0
2018-Apr-25 04:28N 57°30' W 001°47'0 0.0
2018-Apr-25 03:58N 57°30' W 001°47'0 0.0
2018-Apr-25 03:13N 57°30' W 001°47'0 0.0
2018-Apr-25 02:58N 57°30' W 001°47'0 0.0
2018-Apr-25 02:16N 57°30' W 001°47'0 0.0
2018-Apr-25 01:55N 57°30' W 001°47'0 0.0
2018-Apr-25 01:13N 57°30' W 001°47'0 0.0
2018-Apr-25 00:55N 57°30' W 001°47'0 0.0
2018-Apr-25 00:28N 57°30' W 001°47'0 0.0
2018-Apr-24 23:55N 57°30' W 001°47'0 0.0
2018-Apr-24 23:19N 57°30' W 001°47'0 0.0
2018-Apr-24 22:55N 57°30' W 001°47'0 0.0
2018-Apr-24 22:25N 57°30' W 001°47'0 0.0
2018-Apr-24 21:55N 57°30' W 001°47'0 0.0
2018-Apr-24 21:25N 57°30' W 001°47'0 0.0
2018-Apr-24 20:58N 57°30' W 001°47'0 0.0
2018-Apr-24 20:19N 57°30' W 001°47'0 0.0
2018-Apr-24 19:45N 57°30' W 001°47'0 1.0
2018-Apr-24 19:30N 57°30' W 001°47'2 4.4
2018-Apr-24 19:00N 57°28' W 001°44'0 0.1
2018-Apr-24 18:30N 57°28' W 001°44'0 0.6
2018-Apr-24 18:00N 57°28' W 001°44'1 1.4
2018-Apr-24 17:30N 57°27' W 001°44'1 1.3
2018-Apr-24 17:00N 57°27' W 001°45'1 1.2
2018-Apr-24 16:29N 57°26' W 001°45'5 3.8
2018-Apr-24 15:07N 57°22' W 001°49'1 5.5
2018-Apr-24 14:58N 57°21' W 001°50'3 5.7
2018-Apr-24 14:30N 57°18' W 001°52'3 5.7
2018-Apr-24 14:00N 57°16' W 001°54'3 5.7
2018-Apr-24 13:30N 57°13' W 001°56'3 6.4
2018-Apr-24 13:00N 57°11' W 001°60'4 7.1
2018-Apr-24 12:30N 57°09' W 002°05'0 0.0
2018-Apr-24 11:58N 57°08' W 002°05'0 0.0
2018-Apr-24 11:28N 57°08' W 002°05'0 0.0
2018-Apr-24 10:58N 57°09' W 002°05'0 0.0
2018-Apr-24 10:28N 57°09' W 002°05'0 0.0
2018-Apr-24 09:58N 57°09' W 002°05'0 0.0
2018-Apr-24 09:28N 57°09' W 002°05'0 0.0
2018-Apr-24 08:58N 57°08' W 002°05'0 0.0
2018-Apr-24 08:28N 57°09' W 002°05'0 0.0
2018-Apr-24 07:58N 57°08' W 002°05'0 0.0
2018-Apr-24 07:28N 57°09' W 002°05'0 0.0
2018-Apr-24 06:58N 57°09' W 002°05'0 0.0
2018-Apr-24 06:28N 57°09' W 002°05'0 0.0
2018-Apr-24 05:58N 57°09' W 002°05'0 0.0
2018-Apr-24 05:28N 57°09' W 002°05'0 0.0
2018-Apr-24 05:01N 57°09' W 002°05'0 0.5
2018-Apr-24 04:30N 57°08' W 002°04'2 3.3
2018-Apr-24 04:01N 57°09' W 002°02'3 6.1
2018-Apr-24 03:30N 57°08' W 001°56'4 8.0
2018-Apr-24 03:00N 57°05' W 001°52'25410.1
2018-Apr-23 01:55N 53°21' E 001°37'4 9.4
2018-Apr-23 01:30N 53°17' E 001°39'5 9.2
2018-Apr-23 01:00N 53°13' E 001°42'5 9.2
2018-Apr-23 00:30N 53°08' E 001°45'4 9.1
2018-Apr-23 00:01N 53°04' E 001°48'5 8.9
2018-Apr-22 23:30N 53°01' E 001°52'4 9.1
2018-Apr-22 23:00N 52°57' E 001°56'5 9.7
2018-Apr-22 22:30N 52°52' E 002°00'610.4
2018-Apr-22 21:57N 52°48' E 002°06'511.2
2018-Apr-22 21:29N 52°43' E 002°11'5911.5
2018-Apr-22 16:22N 51°55' E 003°05'710.5
2018-Apr-22 15:44N 51°49' E 003°10'310.2
2018-Apr-22 15:29N 51°47' E 003°12'510.1
2018-Apr-22 15:00N 51°43' E 003°16'5 9.7
2018-Apr-22 14:30N 51°39' E 003°21'5 9.7
2018-Apr-22 14:00N 51°35' E 003°24'5 8.8
2018-Apr-22 13:29N 51°30' E 003°27'4 8.2
2018-Apr-22 13:00N 51°27' E 003°31'4 8.0
2018-Apr-22 12:30N 51°26' E 003°37'510.3
2018-Apr-22 12:00N 51°23' E 003°44'611.7
2018-Apr-22 11:30N 51°21' E 003°53'612.2
2018-Apr-22 10:59N 51°26' E 003°59'511.4
2018-Apr-22 10:30N 51°22' E 004°05'5 9.7
2018-Apr-22 10:00N 51°23' E 004°13'511.1
2018-Apr-22 09:30N 51°18' E 004°17'2 4.0
2018-Apr-22 09:00N 51°17' E 004°20'0 0.0
2018-Apr-22 08:31N 51°17' E 004°20'0 0.3
2018-Apr-22 08:00N 51°17' E 004°20'2 4.6
2018-Apr-22 07:31N 51°16' E 004°23'1 1.2
2018-Apr-22 07:00N 51°16' E 004°24'0 0.0
2018-Apr-22 06:30N 51°16' E 004°24'0 0.0
2018-Apr-22 06:00N 51°16' E 004°24'0 0.0
2018-Apr-22 05:30N 51°16' E 004°24'0 0.0
2018-Apr-22 05:00N 51°16' E 004°24'0 0.0
2018-Apr-22 04:30N 51°16' E 004°24'0 0.0
2018-Apr-22 04:00N 51°16' E 004°24'0 0.0
2018-Apr-22 03:30N 51°16' E 004°24'0 0.0
2018-Apr-22 02:59N 51°16' E 004°24'0 0.0
2018-Apr-22 02:29N 51°16' E 004°24'0 0.0
2018-Apr-22 01:59N 51°16' E 004°24'0 0.0
2018-Apr-22 01:29N 51°16' E 004°24'0 0.0
2018-Apr-22 00:59N 51°16' E 004°24'0 0.0
2018-Apr-22 00:29N 51°16' E 004°24'0 0.0
2018-Apr-21 23:59N 51°16' E 004°24'0 0.0
2018-Apr-21 23:29N 51°16' E 004°24'0 0.0
2018-Apr-21 22:59N 51°16' E 004°24'0 0.0
2018-Apr-21 22:29N 51°16' E 004°24'0 0.0
2018-Apr-21 21:59N 51°16' E 004°24'0 0.0
2018-Apr-21 21:29N 51°16' E 004°24'0 0.0
2018-Apr-21 20:59N 51°16' E 004°24'0 0.0
2018-Apr-21 20:29N 51°16' E 004°24'0 0.0
2018-Apr-21 19:59N 51°16' E 004°24'0 0.0
2018-Apr-21 19:29N 51°16' E 004°24'0 0.0
2018-Apr-21 18:59N 51°16' E 004°24'0 0.0
2018-Apr-21 18:29N 51°16' E 004°24'0 0.0
2018-Apr-21 17:59N 51°16' E 004°24'0 0.0
2018-Apr-21 17:29N 51°16' E 004°24'0 0.0
2018-Apr-21 16:59N 51°16' E 004°24'0 0.0
2018-Apr-21 16:29N 51°16' E 004°24'0 0.7
2018-Apr-21 16:00N 51°16' E 004°24'2 4.8
2018-Apr-21 15:30N 51°17' E 004°21'3 5.4
2018-Apr-21 15:00N 51°19' E 004°19'2 2.0
2018-Apr-21 14:07N 51°21' E 004°17'0 0.0
2018-Apr-21 14:00N 51°21' E 004°17'0 0.4
2018-Apr-21 13:27N 51°21' E 004°17'3 6.8
2018-Apr-21 12:59N 51°23' E 004°13'3 6.1
2018-Apr-21 12:30N 51°22' E 004°08'4 8.3
2018-Apr-21 11:59N 51°24' E 004°02'3 5.7
2018-Apr-21 11:30N 51°24' E 003°58'4 8.8
2018-Apr-21 11:00N 51°21' E 003°53'4 8.6
2018-Apr-21 10:30N 51°21' E 003°46'4 8.3
2018-Apr-21 10:00N 51°25' E 003°42'4 7.8
2018-Apr-21 09:30N 51°26' E 003°36'4 7.9
2018-Apr-21 08:59N 51°28' E 003°31'510.2
2018-Apr-21 08:30N 51°32' E 003°26'510.0
2018-Apr-21 08:00N 51°36' E 003°22'510.7
2018-Apr-21 07:30N 51°41' E 003°18'510.5
2018-Apr-21 07:00N 51°45' E 003°13'4 8.4
2018-Apr-21 06:29N 51°49' E 003°08'4 8.0
2018-Apr-21 06:00N 51°52' E 003°06'4 8.0
2018-Apr-21 05:29N 51°56' E 003°04'4 8.1
2018-Apr-21 05:00N 51°60' E 003°02'4 8.1
2018-Apr-21 04:30N 52°04' E 002°60'4 8.1
2018-Apr-21 04:00N 52°08' E 002°59'4 8.3
2018-Apr-21 03:30N 52°11' E 003°02'5 9.3
2018-Apr-21 03:00N 52°16' E 003°03'510.5
2018-Apr-21 02:30N 52°21' E 003°04'610.2
2018-Apr-21 01:57N 52°27' E 003°05'510.5
2018-Apr-21 01:30N 52°31' E 003°06'610.8
2018-Apr-21 00:59N 52°37' E 003°08'611.3
2018-Apr-21 00:28N 52°43' E 003°09'612.3
2018-Apr-21 00:00N 52°48' E 003°11'713.1
2018-Apr-20 23:28N 52°55' E 003°15'812.9
2018-Apr-20 22:52N 53°02' E 003°19'812.4
2018-Apr-20 22:15N 53°10' E 003°23'1211.6
2018-Apr-20 21:13N 53°21' E 003°30'3710.7
2018-Apr-20 17:46N 53°53' E 004°02'412.0
2018-Apr-20 17:24N 53°55' E 004°07'26111.2
2018-Apr-19 18:07N 58°14' E 005°07'110.8
2018-Apr-19 18:00N 58°15' E 005°07'611.0
2018-Apr-19 17:29N 58°21' E 005°07'610.5
2018-Apr-19 16:52N 58°27' E 005°08'410.5
2018-Apr-19 16:29N 58°31' E 005°08'510.5
2018-Apr-19 16:00N 58°36' E 005°09'5 9.8
2018-Apr-19 15:30N 58°41' E 005°12'5 9.0
2018-Apr-19 14:59N 58°45' E 005°16'5 9.9
2018-Apr-19 14:30N 58°48' E 005°23'510.7
2018-Apr-19 14:00N 58°52' E 005°31'5 9.9
2018-Apr-19 13:30N 58°57' E 005°33'611.1
2018-Apr-19 13:00N 59°02' E 005°33'5 9.8
2018-Apr-19 12:30N 59°02' E 005°43'510.2
2018-Apr-19 12:00N 59°04' E 005°52'510.5
2018-Apr-19 11:29N 59°08' E 005°59'1 1.6
2018-Apr-19 10:58N 59°07' E 006°00'0 0.0
2018-Apr-19 10:30N 59°07' E 006°00'0 0.0
2018-Apr-19 10:00N 59°07' E 006°00'0 0.0
2018-Apr-19 09:30N 59°07' E 006°00'0 0.0
2018-Apr-19 09:00N 59°07' E 006°00'0 0.0
2018-Apr-19 08:30N 59°07' E 006°00'0 0.0
2018-Apr-19 08:00N 59°07' E 006°00'0 0.0
2018-Apr-19 07:30N 59°07' E 006°00'0 0.0
2018-Apr-19 07:00N 59°07' E 006°00'0 0.0
2018-Apr-19 06:30N 59°07' E 006°00'0 0.0
2018-Apr-19 06:00N 59°07' E 006°00'0 0.0
2018-Apr-19 05:30N 59°07' E 006°00'0 0.0
2018-Apr-19 05:00N 59°07' E 006°00'0 0.0
2018-Apr-19 04:30N 59°07' E 006°00'0 0.0
2018-Apr-19 04:00N 59°07' E 006°00'0 0.0
2018-Apr-19 03:30N 59°07' E 006°00'0 0.0
2018-Apr-19 03:00N 59°07' E 006°00'0 0.0
2018-Apr-19 02:30N 59°07' E 006°00'0 0.0
2018-Apr-19 02:00N 59°07' E 006°00'0 0.0
2018-Apr-19 01:30N 59°07' E 006°00'0 0.0
2018-Apr-19 01:00N 59°07' E 006°00'0 0.0
2018-Apr-19 00:30N 59°07' E 006°00'0 0.0
2018-Apr-19 00:00N 59°07' E 006°00'0 0.0
2018-Apr-18 23:30N 59°07' E 006°00'0 0.0
2018-Apr-18 23:00N 59°07' E 006°00'0 0.0
2018-Apr-18 22:30N 59°07' E 006°00'0 0.0
2018-Apr-18 22:00N 59°07' E 006°00'0 0.0
2018-Apr-18 21:30N 59°07' E 006°00'0 0.0
2018-Apr-18 21:00N 59°07' E 006°00'0 0.0
2018-Apr-18 20:30N 59°07' E 006°00'0 0.0
2018-Apr-18 19:59N 59°07' E 006°00'0 0.0
2018-Apr-18 19:29N 59°07' E 006°00'0 0.0
2018-Apr-18 18:59N 59°07' E 006°00'0 0.0
2018-Apr-18 18:29N 59°07' E 006°00'0 0.0
2018-Apr-18 17:59N 59°07' E 006°00'0 0.0
2018-Apr-18 17:29N 59°07' E 006°00'0 0.0
2018-Apr-18 16:59N 59°07' E 006°00'0 0.0
2018-Apr-18 16:29N 59°07' E 006°00'0 0.0
2018-Apr-18 15:59N 59°07' E 006°00'0 0.0
2018-Apr-18 15:29N 59°07' E 006°00'0 0.0
2018-Apr-18 14:59N 59°07' E 006°00'0 0.0
2018-Apr-18 14:29N 59°07' E 006°00'0 0.0
2018-Apr-18 13:59N 59°07' E 006°00'0 0.0
2018-Apr-18 13:29N 59°07' E 006°00'0 0.0
2018-Apr-18 12:59N 59°07' E 006°00'0 0.0
2018-Apr-18 12:29N 59°07' E 006°00'0 0.0
2018-Apr-18 11:59N 59°07' E 006°00'0 0.0
2018-Apr-18 11:29N 59°07' E 006°00'0 0.0
2018-Apr-18 10:59N 59°07' E 006°00'0 0.0
2018-Apr-18 10:29N 59°07' E 006°00'0 0.0
2018-Apr-18 09:59N 59°07' E 006°00'0 0.0
2018-Apr-18 09:26N 59°07' E 006°00'0 0.0
2018-Apr-18 08:59N 59°07' E 006°00'0 0.0
2018-Apr-18 08:29N 59°07' E 006°00'0 0.0
2018-Apr-18 07:59N 59°07' E 006°00'0 0.0
2018-Apr-18 07:29N 59°07' E 006°00'0 0.0
2018-Apr-18 06:59N 59°07' E 006°00'0 0.0
2018-Apr-18 06:29N 59°07' E 006°00'0 0.0
2018-Apr-18 05:59N 59°07' E 006°00'0 0.0
2018-Apr-18 05:29N 59°07' E 006°00'0 0.0
2018-Apr-18 04:59N 59°07' E 006°00'0 0.0
2018-Apr-18 04:29N 59°07' E 006°00'0 0.0
2018-Apr-18 03:59N 59°07' E 006°00'0 0.0
2018-Apr-18 03:29N 59°07' E 006°00'0 0.0
2018-Apr-18 02:59N 59°07' E 006°00'0 0.0
2018-Apr-18 02:29N 59°07' E 006°00'0 0.0
2018-Apr-18 01:59N 59°07' E 006°00'0 0.0
2018-Apr-18 01:29N 59°07' E 006°00'0 0.0
2018-Apr-18 00:59N 59°07' E 006°00'0 0.0
2018-Apr-18 00:29N 59°07' E 006°00'0 0.0
2018-Apr-17 23:59N 59°07' E 006°00'0 0.0
2018-Apr-17 23:29N 59°07' E 006°00'0 0.0
2018-Apr-17 22:59N 59°07' E 006°00'0 0.0
2018-Apr-17 22:29N 59°07' E 006°00'0 0.0
2018-Apr-17 21:59N 59°07' E 006°00'0 0.0
2018-Apr-17 21:29N 59°07' E 006°00'0 0.0
2018-Apr-17 20:59N 59°07' E 006°00'0 0.0
2018-Apr-17 20:30N 59°07' E 006°00'0 0.2
2018-Apr-17 20:00N 59°07' E 006°00'3 7.0
2018-Apr-17 19:30N 59°06' E 005°54'5 9.1
2018-Apr-17 19:00N 59°08' E 005°46'5 9.9
2018-Apr-17 18:30N 59°09' E 005°36'510.4
2018-Apr-17 18:00N 59°07' E 005°27'4 8.8
2018-Apr-17 17:30N 59°04' E 005°21'510.2
2018-Apr-17 17:00N 58°59' E 005°18'510.2
2018-Apr-17 16:30N 58°54' E 005°14'510.1
2018-Apr-17 16:00N 58°50' E 005°09'5 9.6
2018-Apr-17 15:30N 58°45' E 005°05'5 9.1
2018-Apr-17 15:00N 58°41' E 005°05'5 9.1
2018-Apr-17 14:30N 58°36' E 005°04'5 9.8
2018-Apr-17 14:00N 58°31' E 005°03'428 9.3
2018-Apr-15 16:10N 51°31' E 002°43'210.7
2018-Apr-15 15:59N 51°29' E 002°43'713.1
2018-Apr-15 15:29N 51°22' E 002°45'4 8.6
2018-Apr-15 15:00N 51°22' E 002°52'4 7.9
2018-Apr-15 14:30N 51°22' E 002°58'510.9
2018-Apr-15 14:00N 51°22' E 003°07'4 7.8
2018-Apr-15 13:30N 51°20' E 003°13'0 0.6
2018-Apr-15 13:00N 51°20' E 003°13'1 2.7
2018-Apr-15 12:30N 51°19' E 003°13'0 0.1
2018-Apr-15 11:59N 51°19' E 003°12'0 0.0
2018-Apr-15 11:29N 51°19' E 003°12'0 0.0
2018-Apr-15 10:59N 51°19' E 003°12'0 0.0
2018-Apr-15 10:29N 51°19' E 003°12'0 0.0
2018-Apr-15 09:59N 51°19' E 003°12'0 0.0
2018-Apr-15 09:29N 51°19' E 003°12'0 0.0
2018-Apr-15 08:59N 51°19' E 003°12'0 0.0
2018-Apr-15 08:29N 51°19' E 003°12'  

Dump ship's entire track history